This is the latest recevied weather packets stored in our database for station/object KN4AN. If no packets are shown the sender has not sent any weather packets the latest 10 day(s).
| Time | Temp. | Humidity | Pressure | Rain* | Wind** | Luminosity | Snow |
|---|---|---|---|---|---|---|---|
| 1788018445 | 26.67° C | 64% | 1023.7 hPa | 0 mm | - | 825 W/m² | - |
| 1788018144 | 26.67° C | 64% | 1023.9 hPa | 0 mm | - | 288 W/m² | - |
| 1788017841 | 26.67° C | 64% | 1023.7 hPa | 0 mm | - | 318 W/m² | - |
| 1788017536 | 27.22° C | 64% | 1023.6 hPa | 0 mm | - | 308 W/m² | - |
| 1788017233 | 27.22° C | 65% | 1023.7 hPa | 0 mm | - | 256 W/m² | - |
| 1788016928 | 27.22° C | 65% | 1023.9 hPa | 0 mm | - | 257 W/m² | - |
| 1788016627 | 27.22° C | 64% | 1023.8 hPa | 0 mm | - | 239 W/m² | - |
| 1788016326 | 27.22° C | 64% | 1023.6 hPa | 0 mm | - | 733 W/m² | - |
| 1788016026 | 27.22° C | 64% | 1023.7 hPa | 0 mm | - | 656 W/m² | - |
| 1788015725 | 27.22° C | 65% | 1023.7 hPa | 0 mm | - | 644 W/m² | - |
| 1788015420 | 26.67° C | 69% | 1023.5 hPa | 0 mm | - | 624 W/m² | - |
| 1788015115 | 26.11° C | 69% | 1023.4 hPa | 0 mm | - | 684 W/m² | - |
| 1788014813 | 26.11° C | 72% | 1023.5 hPa | 0 mm | - | 242 W/m² | - |
| 1788014508 | 25.56° C | 74% | 1023.4 hPa | 0 mm | - | 332 W/m² | - |
| 1788014203 | 25.56° C | 74% | 1023.5 hPa | 0 mm | - | 401 W/m² | - |
| 1788013903 | 25.56° C | 76% | 1023.6 hPa | 0 mm | - | 188 W/m² | - |
| 1788013597 | 25.56° C | 73% | 1023.3 hPa | 0 mm | - | 237 W/m² | - |
| 1788013291 | 26.11° C | 71% | 1023.6 hPa | 0 mm | - | 194 W/m² | - |
| 1788012986 | 26.11° C | 74% | 1023.5 hPa | 0 mm | - | 535 W/m² | - |
| 1788012686 | 26.11° C | 74% | 1023.5 hPa | 0 mm | - | 444 W/m² | - |
| 1788012381 | 25.56° C | 73% | 1023.3 hPa | 0 mm | - | 535 W/m² | - |
| 1788012076 | 26.11° C | 73% | 1023.5 hPa | 0 mm | - | 508 W/m² | - |
| 1788011775 | 25.56° C | 72% | 1023.3 hPa | 0 mm | - | 242 W/m² | - |
| 1788011469 | 25.56° C | 76% | 1023.4 hPa | 0 mm | - | 342 W/m² | - |
| 1788011169 | 25° C | 76% | 1023.4 hPa | 0 mm | - | 397 W/m² | - |
* Rain latest hour (hover to see other rain measurements)
** Current wind speed in m/s (hover to see current wind gust speed)